createdAt,value
2019-05-09T00:01:04.135Z,11.00
2019-05-09T00:03:33.590Z,11.00
2019-05-09T00:06:04.608Z,11.00
2019-05-09T00:08:33.702Z,11.10
2019-05-09T00:11:03.658Z,11.10
2019-05-09T00:13:34.156Z,11.00
2019-05-09T00:16:03.812Z,11.00
2019-05-09T00:18:33.714Z,11.00
2019-05-09T00:21:14.285Z,10.90
2019-05-09T00:23:43.807Z,11.00
2019-05-09T00:26:13.744Z,10.90
2019-05-09T00:28:45.961Z,10.80
2019-05-09T00:31:40.963Z,10.80
2019-05-09T00:34:14.373Z,10.70
2019-05-09T00:36:44.014Z,10.70
2019-05-09T00:39:13.549Z,10.80
2019-05-09T00:41:43.533Z,10.70
2019-05-09T00:44:19.579Z,10.70
2019-05-09T00:47:00.942Z,10.70
2019-05-09T00:49:30.523Z,10.70
2019-05-09T00:51:59.732Z,10.60
2019-05-09T00:54:29.190Z,10.70
2019-05-09T00:56:58.562Z,10.60
2019-05-09T00:59:27.713Z,10.60
2019-05-09T01:01:57.887Z,10.60
2019-05-09T01:04:27.026Z,10.60
2019-05-09T01:06:56.198Z,10.50
2019-05-09T01:09:25.406Z,10.50
2019-05-09T01:11:54.537Z,10.50
2019-05-09T01:14:23.699Z,10.40
2019-05-09T01:16:54.878Z,10.30
2019-05-09T01:19:24.535Z,10.30
2019-05-09T01:21:54.279Z,10.20
2019-05-09T01:24:23.822Z,10.20
2019-05-09T01:26:54.316Z,10.10
2019-05-09T01:29:23.527Z,10.10
2019-05-09T01:31:54.354Z,10.10
2019-05-09T01:34:29.690Z,10.10
2019-05-09T01:37:10.359Z,10.00
2019-05-09T01:39:39.491Z,10.00
2019-05-09T01:42:08.984Z,10.00
2019-05-09T01:44:38.191Z,10.10
2019-05-09T01:47:07.374Z,10.10
2019-05-09T01:49:36.851Z,10.10
2019-05-09T01:52:06.356Z,10.10
2019-05-09T01:54:37.503Z,10.10
2019-05-09T01:57:06.615Z,10.10
2019-05-09T01:59:36.283Z,10.10
2019-05-09T02:02:08.602Z,10.10
2019-05-09T02:04:36.983Z,10.10
2019-05-09T02:07:06.201Z,10.00
2019-05-09T02:09:35.298Z,10.00
2019-05-09T02:12:04.480Z,10.10
2019-05-09T02:14:43.859Z,10.10
2019-05-09T02:17:33.454Z,10.20
2019-05-09T02:20:03.972Z,10.10
2019-05-09T02:22:36.890Z,10.10
2019-05-09T02:25:07.176Z,10.00
2019-05-09T02:27:36.358Z,9.90
2019-05-09T02:30:06.947Z,9.90
2019-05-09T02:32:36.319Z,9.80
2019-05-09T02:35:06.099Z,9.80
2019-05-09T02:37:38.556Z,9.80
2019-05-09T02:40:09.559Z,9.70
2019-05-09T02:42:39.675Z,9.70
2019-05-09T02:45:09.609Z,9.70
2019-05-09T02:47:38.948Z,9.70
2019-05-09T02:50:09.276Z,9.70
2019-05-09T02:52:39.816Z,9.70
2019-05-09T02:55:10.600Z,9.60
2019-05-09T02:57:40.624Z,9.50
2019-05-09T03:00:32.627Z,9.50
2019-05-09T03:03:09.699Z,9.60
2019-05-09T03:05:39.314Z,9.60
2019-05-09T03:08:09.498Z,9.60
2019-05-09T03:10:39.090Z,9.70
2019-05-09T03:13:09.324Z,9.80
2019-05-09T03:15:39.484Z,9.80
2019-05-09T03:18:09.634Z,9.80
2019-05-09T03:20:58.549Z,9.80
2019-05-09T03:23:28.730Z,9.80
2019-05-09T03:25:59.054Z,9.90
2019-05-09T03:28:53.973Z,10.00
2019-05-09T03:31:24.141Z,10.00
2019-05-09T03:33:53.516Z,10.00
2019-05-09T03:36:22.622Z,10.10
2019-05-09T03:38:51.967Z,10.10
2019-05-09T03:41:21.077Z,10.00
2019-05-09T03:43:50.438Z,10.00
2019-05-09T03:46:28.819Z,10.00
2019-05-09T03:48:59.302Z,10.10
2019-05-09T03:51:28.430Z,10.00
2019-05-09T03:53:57.754Z,10.00
2019-05-09T03:56:32.122Z,10.10
2019-05-09T03:59:01.225Z,10.10
2019-05-09T04:01:30.683Z,10.10
2019-05-09T04:03:59.796Z,10.10
2019-05-09T04:06:28.920Z,10.10
2019-05-09T04:08:58.470Z,10.10
2019-05-09T04:11:28.312Z,10.10
2019-05-09T04:14:01.979Z,10.10
2019-05-09T04:16:31.407Z,10.10
2019-05-09T04:19:00.783Z,10.10
2019-05-09T04:21:29.911Z,10.00
2019-05-09T04:23:59.272Z,10.00
2019-05-09T04:26:40.437Z,10.00
2019-05-09T04:29:09.567Z,10.10
2019-05-09T04:31:38.718Z,10.10
2019-05-09T04:34:09.816Z,10.10
2019-05-09T04:36:39.581Z,10.10
2019-05-09T04:39:18.964Z,10.10
2019-05-09T04:41:45.304Z,10.10
2019-05-09T04:44:23.958Z,10.10
2019-05-09T04:46:54.245Z,10.10
2019-05-09T04:49:23.983Z,10.20
2019-05-09T04:51:53.131Z,10.10
2019-05-09T04:54:22.226Z,10.10
2019-05-09T04:56:53.824Z,10.10
2019-05-09T04:59:22.761Z,10.00
2019-05-09T05:02:11.007Z,10.00
2019-05-09T05:04:41.163Z,10.00
2019-05-09T05:07:10.642Z,9.90
2019-05-09T05:09:39.775Z,10.00
2019-05-09T05:12:09.232Z,9.90
2019-05-09T05:14:38.644Z,9.90
2019-05-09T05:17:11.149Z,10.00
2019-05-09T05:19:38.706Z,10.00
2019-05-09T05:22:28.336Z,10.00
2019-05-09T05:25:00.416Z,10.10
2019-05-09T05:27:29.819Z,10.20
2019-05-09T05:29:59.226Z,10.20
2019-05-09T05:32:43.038Z,10.20
2019-05-09T05:35:34.297Z,10.10
2019-05-09T05:38:03.419Z,10.10
2019-05-09T05:40:33.912Z,10.10
2019-05-09T05:43:03.250Z,10.20
2019-05-09T05:45:37.537Z,10.20
2019-05-09T05:48:17.374Z,10.20
2019-05-09T05:50:45.918Z,10.30
2019-05-09T05:53:15.031Z,10.40
2019-05-09T05:55:44.379Z,10.40
2019-05-09T05:58:13.591Z,10.40
2019-05-09T06:00:42.949Z,10.40
2019-05-09T06:03:12.319Z,10.50
2019-05-09T06:05:41.427Z,10.60
2019-05-09T06:08:10.546Z,10.70
2019-05-09T06:10:41.487Z,10.80
2019-05-09T06:13:10.637Z,10.90
2019-05-09T06:15:39.748Z,11.00
2019-05-09T06:18:09.147Z,11.00
2019-05-09T06:20:38.689Z,11.00
2019-05-09T06:23:08.727Z,11.10
2019-05-09T06:25:38.898Z,11.10
2019-05-09T06:28:08.198Z,11.10
2019-05-09T06:30:40.840Z,11.20
2019-05-09T06:33:08.966Z,11.20
2019-05-09T06:35:38.265Z,11.20
2019-05-09T06:38:07.884Z,11.20
2019-05-09T06:40:38.292Z,11.20
2019-05-09T06:43:25.651Z,11.20
2019-05-09T06:46:12.981Z,11.20
2019-05-09T06:48:42.371Z,11.10
2019-05-09T06:51:11.462Z,11.00
2019-05-09T06:53:40.808Z,11.10
2019-05-09T06:56:09.927Z,11.10
2019-05-09T06:58:39.119Z,11.10
2019-05-09T07:01:33.771Z,11.00
2019-05-09T07:04:09.130Z,11.10
2019-05-09T07:06:54.595Z,11.10
2019-05-09T07:09:28.065Z,11.20
2019-05-09T07:11:58.619Z,11.10
2019-05-09T07:14:32.451Z,11.10
2019-05-09T07:16:59.416Z,11.10
2019-05-09T07:19:28.552Z,11.10
2019-05-09T07:22:01.685Z,11.10
2019-05-09T07:24:31.068Z,11.00
2019-05-09T07:27:00.191Z,11.00
2019-05-09T07:29:30.340Z,11.00
2019-05-09T07:32:04.914Z,11.00
2019-05-09T07:34:41.759Z,11.00
2019-05-09T07:37:11.391Z,11.00
2019-05-09T07:39:40.485Z,11.00
2019-05-09T07:42:09.603Z,11.00
2019-05-09T07:44:48.806Z,10.80
2019-05-09T07:47:09.538Z,10.70
2019-05-09T07:49:38.641Z,10.60
2019-05-09T07:52:10.399Z,10.60
2019-05-09T07:54:38.606Z,10.50
2019-05-09T07:57:08.601Z,10.50
2019-05-09T07:59:38.934Z,10.50
2019-05-09T08:02:08.864Z,10.50
2019-05-09T08:04:38.781Z,10.40
2019-05-09T08:07:08.552Z,10.50
2019-05-09T08:09:38.715Z,10.60
2019-05-09T08:12:08.157Z,10.60
2019-05-09T08:14:37.880Z,10.60
2019-05-09T08:17:08.541Z,10.70
2019-05-09T08:19:38.144Z,10.70
2019-05-09T08:22:08.020Z,10.70
2019-05-09T08:24:37.983Z,10.70
2019-05-09T08:27:08.491Z,10.60
2019-05-09T08:29:38.705Z,10.60
2019-05-09T08:32:08.096Z,10.60
2019-05-09T08:34:37.813Z,10.60
2019-05-09T08:37:08.142Z,10.60
2019-05-09T08:39:38.404Z,10.70
2019-05-09T08:42:08.484Z,10.70
2019-05-09T08:44:41.889Z,10.80
2019-05-09T08:47:08.953Z,10.80
2019-05-09T08:49:49.432Z,10.80
2019-05-09T08:52:19.903Z,10.80
2019-05-09T08:54:52.245Z,10.80
2019-05-09T08:57:21.367Z,10.70
2019-05-09T08:59:51.009Z,10.70
2019-05-09T09:02:22.314Z,10.60
2019-05-09T09:04:51.095Z,10.50
2019-05-09T09:07:20.238Z,10.50
2019-05-09T09:09:49.597Z,10.50
2019-05-09T09:12:27.291Z,10.60
2019-05-09T09:14:49.629Z,10.60
2019-05-09T09:17:19.006Z,10.60
2019-05-09T09:19:48.191Z,10.60
2019-05-09T09:22:18.046Z,10.60
2019-05-09T09:24:48.203Z,10.70
2019-05-09T09:27:18.396Z,10.80
2019-05-09T09:29:48.240Z,10.90
2019-05-09T09:32:18.867Z,11.00
2019-05-09T09:34:48.632Z,11.00
2019-05-09T09:37:18.458Z,11.20
2019-05-09T09:39:48.924Z,11.20
2019-05-09T09:42:19.935Z,11.20
2019-05-09T09:44:49.544Z,11.30
2019-05-09T09:47:23.094Z,11.30
2019-05-09T09:49:49.702Z,11.30
2019-05-09T09:52:19.026Z,11.40
2019-05-09T09:54:48.781Z,11.40
2019-05-09T09:57:19.065Z,11.40
2019-05-09T09:59:52.111Z,11.40
2019-05-09T10:02:27.801Z,11.40
2019-05-09T10:04:56.225Z,11.30
2019-05-09T10:07:27.824Z,11.20
2019-05-09T10:09:58.396Z,11.10
2019-05-09T10:12:28.608Z,11.00
2019-05-09T10:15:04.759Z,10.90
2019-05-09T10:17:51.727Z,10.80
2019-05-09T10:20:38.742Z,10.70
2019-05-09T10:23:18.183Z,10.60
2019-05-09T10:25:39.271Z,10.50
2019-05-09T10:28:08.814Z,10.50
2019-05-09T10:30:38.456Z,10.60
2019-05-09T10:33:09.236Z,10.60
2019-05-09T10:35:39.243Z,10.60
2019-05-09T10:38:08.994Z,10.60
2019-05-09T10:40:39.836Z,10.70
2019-05-09T10:43:34.643Z,10.70
2019-05-09T10:46:10.246Z,10.80
2019-05-09T10:48:41.044Z,10.90
2019-05-09T10:51:10.772Z,10.90
2019-05-09T10:53:40.154Z,10.90
2019-05-09T10:56:09.312Z,10.90
2019-05-09T10:58:38.491Z,10.90
2019-05-09T11:01:09.159Z,10.90
2019-05-09T11:03:38.453Z,11.00
2019-05-09T11:06:08.659Z,11.10
2019-05-09T11:08:38.208Z,11.10
2019-05-09T11:11:09.419Z,11.10
2019-05-09T11:13:39.108Z,11.10
2019-05-09T11:16:08.410Z,11.10
2019-05-09T11:18:37.942Z,11.10
2019-05-09T11:21:08.442Z,11.10
2019-05-09T11:23:39.315Z,11.20
2019-05-09T11:26:08.578Z,11.20
2019-05-09T11:28:37.778Z,11.20
2019-05-09T11:31:08.078Z,11.20
2019-05-09T11:33:38.628Z,11.20
2019-05-09T11:36:09.706Z,11.20
2019-05-09T11:38:43.638Z,11.20
2019-05-09T11:41:10.297Z,11.30
2019-05-09T11:43:39.679Z,11.20
2019-05-09T11:46:10.482Z,11.20
2019-05-09T11:48:42.426Z,11.10
2019-05-09T11:51:11.709Z,11.10
2019-05-09T11:53:40.871Z,11.10
2019-05-09T11:56:10.107Z,11.10
2019-05-09T11:58:39.274Z,11.20
2019-05-09T12:01:08.467Z,11.20
2019-05-09T12:03:38.833Z,11.30
2019-05-09T12:06:08.484Z,11.30
2019-05-09T12:08:38.733Z,11.30
2019-05-09T12:11:08.503Z,11.30
2019-05-09T12:13:38.102Z,11.40
2019-05-09T12:16:07.721Z,11.40
2019-05-09T12:18:37.813Z,11.30
2019-05-09T12:21:08.548Z,11.30
2019-05-09T12:23:37.888Z,11.40
2019-05-09T12:26:08.220Z,11.40
2019-05-09T12:28:38.676Z,11.40
2019-05-09T12:31:08.051Z,11.40
2019-05-09T12:33:37.158Z,11.40
2019-05-09T12:36:09.065Z,11.50
2019-05-09T12:38:38.917Z,11.50
2019-05-09T12:41:08.272Z,11.50
2019-05-09T12:43:38.187Z,11.60
2019-05-09T12:46:08.621Z,11.60
2019-05-09T12:48:38.027Z,11.70
2019-05-09T12:51:08.253Z,11.70
2019-05-09T12:53:39.579Z,11.60
2019-05-09T12:56:08.479Z,11.60
2019-05-09T12:58:37.910Z,11.40
2019-05-09T13:01:07.635Z,11.40
2019-05-09T13:03:38.965Z,11.30
2019-05-09T13:06:08.385Z,11.30
2019-05-09T13:08:38.668Z,11.20
2019-05-09T13:11:08.287Z,11.10
2019-05-09T13:13:40.906Z,11.10
2019-05-09T13:16:39.040Z,11.10
2019-05-09T13:19:02.747Z,11.00
2019-05-09T13:21:33.126Z,11.00
2019-05-09T13:24:02.668Z,11.00
2019-05-09T13:26:31.918Z,11.00
2019-05-09T13:29:02.037Z,10.90
2019-05-09T13:31:34.591Z,11.00
2019-05-09T13:34:02.052Z,10.90
2019-05-09T13:36:31.228Z,11.00
2019-05-09T13:39:04.393Z,11.00
2019-05-09T13:41:31.252Z,11.00
2019-05-09T13:44:05.293Z,11.00
2019-05-09T13:46:32.959Z,11.00
2019-05-09T13:49:11.521Z,11.00
2019-05-09T13:51:33.649Z,11.00
2019-05-09T13:54:03.176Z,11.00
2019-05-09T13:56:32.390Z,11.10
2019-05-09T13:59:01.903Z,11.10
2019-05-09T14:01:31.130Z,11.10
2019-05-09T14:04:00.615Z,11.10
2019-05-09T14:06:29.791Z,11.10
2019-05-09T14:08:59.864Z,11.20
2019-05-09T14:11:29.414Z,11.20
2019-05-09T14:13:59.067Z,11.20
2019-05-09T14:16:28.876Z,11.30
2019-05-09T14:19:04.029Z,11.40
2019-05-09T14:21:29.946Z,11.40
2019-05-09T14:24:10.949Z,11.50
2019-05-09T14:26:30.116Z,11.50
2019-05-09T14:28:59.232Z,11.50
2019-05-09T14:31:32.150Z,11.60
2019-05-09T14:33:59.209Z,11.60
2019-05-09T14:36:28.327Z,11.60
2019-05-09T14:38:58.143Z,11.60
2019-05-09T14:41:27.886Z,11.70
2019-05-09T14:43:59.675Z,11.80
2019-05-09T14:46:28.466Z,11.70
2019-05-09T14:48:58.407Z,11.80
2019-05-09T14:51:28.584Z,11.80
2019-05-09T14:53:59.381Z,11.90
2019-05-09T14:56:28.931Z,11.90
2019-05-09T14:58:58.327Z,11.90
2019-05-09T15:01:28.701Z,11.90
2019-05-09T15:03:58.680Z,11.80
2019-05-09T15:06:28.441Z,11.80
2019-05-09T15:08:58.249Z,11.80
2019-05-09T15:11:28.374Z,11.80
2019-05-09T15:13:58.587Z,11.80
2019-05-09T15:16:28.404Z,11.80
2019-05-09T15:18:58.563Z,11.80
2019-05-09T15:21:27.826Z,11.80
2019-05-09T15:23:58.679Z,11.90
2019-05-09T15:26:28.023Z,12.00
2019-05-09T15:28:57.982Z,12.10
2019-05-09T15:31:28.624Z,12.20
2019-05-09T15:33:58.033Z,12.20
2019-05-09T15:36:27.155Z,12.20
2019-05-09T15:38:58.935Z,12.30
2019-05-09T15:41:27.766Z,12.30
2019-05-09T15:43:57.960Z,12.30
2019-05-09T15:46:38.298Z,12.30
2019-05-09T15:49:07.654Z,12.30
2019-05-09T15:51:38.602Z,12.30
2019-05-09T15:54:08.410Z,12.30
2019-05-09T15:56:38.455Z,12.40
2019-05-09T15:59:07.882Z,12.40
2019-05-09T16:01:38.573Z,12.40
2019-05-09T16:04:08.589Z,12.40
2019-05-09T16:06:39.192Z,12.40
2019-05-09T16:09:11.863Z,12.40
2019-05-09T16:11:40.113Z,12.40
2019-05-09T16:14:09.315Z,12.40
2019-05-09T16:16:38.676Z,12.40
2019-05-09T16:19:08.879Z,12.50
2019-05-09T16:21:38.435Z,12.50
2019-05-09T16:24:08.215Z,12.50
2019-05-09T16:26:38.336Z,12.50
2019-05-09T16:29:08.620Z,12.50
2019-05-09T16:31:38.807Z,12.50
2019-05-09T16:34:09.345Z,12.50
2019-05-09T16:36:39.616Z,12.60
2019-05-09T16:39:08.729Z,12.50
2019-05-09T16:41:39.251Z,12.60
2019-05-09T16:44:08.667Z,12.50
2019-05-09T16:46:38.307Z,12.60
2019-05-09T16:49:11.707Z,12.60
2019-05-09T16:51:40.567Z,12.50
2019-05-09T16:54:09.598Z,12.50
2019-05-09T16:56:38.782Z,12.60
2019-05-09T16:59:08.464Z,12.60
2019-05-09T17:01:40.214Z,12.60
2019-05-09T17:04:09.457Z,12.60
2019-05-09T17:06:38.693Z,12.70
2019-05-09T17:09:11.109Z,12.70
2019-05-09T17:11:40.429Z,12.70
2019-05-09T17:14:10.178Z,12.70
2019-05-09T17:16:39.302Z,12.60
2019-05-09T17:19:08.777Z,12.60
2019-05-09T17:22:15.520Z,12.60
2019-05-09T17:24:48.391Z,12.60
2019-05-09T17:27:18.843Z,12.60
2019-05-09T17:30:08.616Z,12.60
2019-05-09T17:32:38.142Z,12.60
2019-05-09T17:35:07.595Z,12.50
2019-05-09T17:37:38.037Z,12.60
2019-05-09T17:40:08.766Z,12.60
2019-05-09T17:42:38.236Z,12.60
2019-05-09T17:45:08.441Z,12.60
2019-05-09T17:47:37.882Z,12.70
2019-05-09T17:50:07.817Z,12.70
2019-05-09T17:52:37.098Z,12.80
2019-05-09T17:55:07.410Z,12.80
2019-05-09T17:57:38.833Z,12.90
2019-05-09T18:00:08.633Z,12.90
2019-05-09T18:02:38.548Z,12.90
2019-05-09T18:05:08.191Z,12.90
2019-05-09T18:07:37.757Z,12.90
2019-05-09T18:10:07.809Z,12.90
2019-05-09T18:12:38.376Z,12.90
2019-05-09T18:15:08.223Z,12.80
2019-05-09T18:17:38.286Z,12.80
2019-05-09T18:20:08.107Z,12.80
2019-05-09T18:22:37.283Z,12.70
2019-05-09T18:25:08.335Z,12.70
2019-05-09T18:27:37.928Z,12.60
2019-05-09T18:30:07.982Z,12.60
2019-05-09T18:32:57.903Z,12.60
2019-05-09T18:35:27.997Z,12.50
2019-05-09T18:37:58.824Z,12.50
2019-05-09T18:40:28.369Z,12.50
2019-05-09T18:42:58.379Z,12.50
2019-05-09T18:45:28.443Z,12.50
2019-05-09T18:47:58.239Z,12.50
2019-05-09T18:50:27.395Z,12.40
2019-05-09T18:52:56.772Z,12.40
2019-05-09T18:55:26.157Z,12.40
2019-05-09T18:57:55.306Z,12.40
2019-05-09T19:00:24.608Z,12.40
2019-05-09T19:02:54.351Z,12.50
2019-05-09T19:05:24.019Z,12.50
2019-05-09T19:07:53.226Z,12.50
2019-05-09T19:10:22.536Z,12.40
2019-05-09T19:12:51.638Z,12.40
2019-05-09T19:15:33.250Z,12.30
2019-05-09T19:18:14.797Z,12.30
2019-05-09T19:20:52.290Z,12.30
2019-05-09T19:23:21.396Z,12.30
2019-05-09T19:25:50.855Z,12.30
2019-05-09T19:28:23.793Z,12.30
2019-05-09T19:30:51.161Z,12.20
2019-05-09T19:33:20.349Z,12.20
2019-05-09T19:35:49.632Z,12.20
2019-05-09T19:38:18.761Z,12.20
2019-05-09T19:40:47.960Z,12.20
2019-05-09T19:43:17.610Z,12.10
2019-05-09T19:45:46.733Z,12.10
2019-05-09T19:48:16.090Z,12.10
2019-05-09T19:50:45.223Z,12.10
2019-05-09T19:53:14.613Z,12.00
2019-05-09T19:55:46.783Z,12.10
2019-05-09T19:58:15.873Z,12.10
2019-05-09T20:00:45.002Z,12.10
2019-05-09T20:03:14.356Z,12.20
2019-05-09T20:05:43.486Z,12.10
2019-05-09T20:08:12.735Z,12.10
2019-05-09T20:11:00.062Z,12.20
2019-05-09T20:13:54.291Z,12.10
2019-05-09T20:16:23.482Z,12.10
2019-05-09T20:18:53.154Z,12.00
2019-05-09T20:21:22.348Z,12.00
2019-05-09T20:23:51.541Z,12.00
2019-05-09T20:26:20.768Z,11.90
2019-05-09T20:28:49.966Z,11.90
2019-05-09T20:31:19.521Z,11.90
2019-05-09T20:33:48.649Z,11.90
2019-05-09T20:36:18.138Z,11.80
2019-05-09T20:38:47.898Z,11.90
2019-05-09T20:41:17.219Z,11.90
2019-05-09T20:43:46.574Z,11.90
2019-05-09T20:46:15.892Z,11.90
2019-05-09T20:48:45.979Z,11.90
2019-05-09T20:51:15.561Z,11.90
2019-05-09T20:53:44.972Z,11.90
2019-05-09T20:56:14.263Z,11.90
2019-05-09T20:58:43.571Z,11.90
2019-05-09T21:01:12.863Z,11.90
2019-05-09T21:03:58.553Z,11.90
2019-05-09T21:06:13.578Z,11.90
2019-05-09T21:08:42.929Z,11.90
2019-05-09T21:11:12.197Z,11.90
2019-05-09T21:13:48.605Z,11.90
2019-05-09T21:16:13.742Z,11.90
2019-05-09T21:18:49.351Z,11.90
2019-05-09T21:21:19.324Z,11.90
2019-05-09T21:23:49.306Z,11.90
2019-05-09T21:26:18.838Z,11.90
2019-05-09T21:28:48.149Z,11.90
2019-05-09T21:31:17.700Z,11.90
2019-05-09T21:33:47.455Z,11.90
2019-05-09T21:36:16.855Z,11.90
2019-05-09T21:38:46.039Z,11.90
2019-05-09T21:41:15.151Z,11.90
2019-05-09T21:43:44.523Z,11.90
2019-05-09T21:46:13.650Z,11.80
2019-05-09T21:48:42.878Z,11.90
2019-05-09T21:51:12.015Z,11.80
2019-05-09T21:53:41.511Z,11.90
2019-05-09T21:56:11.186Z,11.80
2019-05-09T21:58:40.474Z,11.80
2019-05-09T22:01:13.250Z,11.80
2019-05-09T22:03:43.463Z,11.80
2019-05-09T22:06:12.677Z,11.80
2019-05-09T22:08:42.039Z,11.80
2019-05-09T22:11:11.152Z,11.80
2019-05-09T22:13:40.363Z,11.80
2019-05-09T22:16:09.673Z,11.80
2019-05-09T22:18:38.795Z,11.80
2019-05-09T22:21:10.058Z,11.70
2019-05-09T22:23:39.475Z,11.70
2019-05-09T22:26:08.589Z,11.70
2019-05-09T22:28:38.143Z,11.70
2019-05-09T22:31:07.603Z,11.70
2019-05-09T22:33:36.713Z,11.70
2019-05-09T22:36:05.832Z,11.70
2019-05-09T22:38:34.947Z,11.70
2019-05-09T22:41:04.137Z,11.70
2019-05-09T22:43:33.694Z,11.70
2019-05-09T22:46:02.819Z,11.70
2019-05-09T22:48:32.195Z,11.70
2019-05-09T22:51:01.323Z,11.70
2019-05-09T22:53:30.436Z,11.60
2019-05-09T22:55:59.560Z,11.60
2019-05-09T22:58:28.684Z,11.60
2019-05-09T23:00:57.867Z,11.60
2019-05-09T23:03:26.999Z,11.60
2019-05-09T23:05:56.122Z,11.60
2019-05-09T23:08:25.395Z,11.60
2019-05-09T23:10:54.879Z,11.60
2019-05-09T23:13:24.031Z,11.60
2019-05-09T23:15:53.271Z,11.60
2019-05-09T23:18:22.519Z,11.60
2019-05-09T23:21:01.169Z,11.60
2019-05-09T23:23:39.524Z,11.60
2019-05-09T23:26:08.962Z,11.50
2019-05-09T23:28:38.168Z,11.50
2019-05-09T23:31:11.303Z,11.60
2019-05-09T23:33:41.464Z,11.50
2019-05-09T23:36:10.570Z,11.50
2019-05-09T23:38:58.329Z,11.50
2019-05-09T23:41:27.530Z,11.50
2019-05-09T23:43:56.931Z,11.40
2019-05-09T23:46:26.500Z,11.40
2019-05-09T23:48:55.909Z,11.40
2019-05-09T23:51:28.647Z,11.40
2019-05-09T23:53:56.938Z,11.40
2019-05-09T23:56:44.036Z,11.40
2019-05-09T23:59:31.135Z,11.40
